createdAt,value
2022-12-31T00:00:01.002Z,999.62
2022-12-31T00:01:01.015Z,999.62
2022-12-31T00:02:01.223Z,999.62
2022-12-31T00:03:01.123Z,999.62
2022-12-31T00:04:00.983Z,999.66
2022-12-31T00:05:01.013Z,999.67
2022-12-31T00:06:00.945Z,999.71
2022-12-31T00:07:00.967Z,999.67
2022-12-31T00:08:00.965Z,999.67
2022-12-31T00:09:00.930Z,999.58
2022-12-31T00:10:00.894Z,999.64
2022-12-31T00:11:00.954Z,999.51
2022-12-31T00:12:00.839Z,999.59
2022-12-31T00:13:00.890Z,999.59
2022-12-31T00:14:00.861Z,999.62
2022-12-31T00:15:00.830Z,999.56
2022-12-31T00:16:00.816Z,999.68
2022-12-31T00:17:00.909Z,999.70
2022-12-31T00:18:00.784Z,999.65
2022-12-31T00:19:00.826Z,999.66
2022-12-31T00:20:00.738Z,999.65
2022-12-31T00:21:00.750Z,999.65
2022-12-31T00:22:00.734Z,999.66
2022-12-31T00:23:00.841Z,999.67
2022-12-31T00:24:00.709Z,999.62
2022-12-31T00:25:00.736Z,999.69
2022-12-31T00:26:00.640Z,999.66
2022-12-31T00:27:00.646Z,999.62
2022-12-31T00:28:00.702Z,999.58
2022-12-31T00:29:00.684Z,999.61
2022-12-31T00:30:04.497Z,999.60
2022-12-31T00:31:00.687Z,999.55
2022-12-31T00:32:00.565Z,999.59
2022-12-31T00:33:00.579Z,999.59
2022-12-31T00:34:00.587Z,999.58
2022-12-31T00:35:00.672Z,999.56
2022-12-31T00:36:00.557Z,999.59
2022-12-31T00:37:00.565Z,999.59
2022-12-31T00:38:00.499Z,999.62
2022-12-31T00:39:00.573Z,999.64
2022-12-31T00:40:00.465Z,999.61
2022-12-31T00:41:00.518Z,999.60
2022-12-31T00:42:00.458Z,999.59
2022-12-31T00:43:00.488Z,999.63
2022-12-31T00:44:00.427Z,999.69
2022-12-31T00:45:00.455Z,999.74
2022-12-31T00:46:00.464Z,999.80
2022-12-31T00:47:00.465Z,999.81
2022-12-31T00:48:00.386Z,999.88
2022-12-31T00:49:00.398Z,999.82
2022-12-31T00:50:00.342Z,999.83
2022-12-31T00:51:00.376Z,999.87
2022-12-31T00:52:00.311Z,999.87
2022-12-31T00:53:00.461Z,999.88
2022-12-31T00:54:00.374Z,999.91
2022-12-31T00:55:00.328Z,999.85
2022-12-31T00:56:00.289Z,999.90
2022-12-31T00:57:00.300Z,999.85
2022-12-31T00:58:00.261Z,999.86
2022-12-31T00:59:00.490Z,999.85
2022-12-31T01:00:00.228Z,999.85
2022-12-31T01:01:00.326Z,999.81
2022-12-31T01:02:00.336Z,999.81
2022-12-31T01:03:00.371Z,999.76
2022-12-31T01:04:00.152Z,999.73
2022-12-31T01:05:00.299Z,999.73
2022-12-31T01:06:00.150Z,999.71
2022-12-31T01:07:00.134Z,999.68
2022-12-31T01:08:00.121Z,999.68
2022-12-31T01:09:00.142Z,999.67
2022-12-31T01:10:00.142Z,999.68
2022-12-31T01:11:00.433Z,999.58
2022-12-31T01:12:00.039Z,999.63
2022-12-31T01:13:00.089Z,999.65
2022-12-31T01:14:00.023Z,999.62
2022-12-31T01:15:00.044Z,999.64
2022-12-31T01:16:00.004Z,999.63
2022-12-31T01:17:00.020Z,999.61
2022-12-31T01:17:59.968Z,999.67
2022-12-31T01:18:59.978Z,999.61
2022-12-31T01:19:59.945Z,999.65
2022-12-31T01:20:59.956Z,999.71
2022-12-31T01:21:59.894Z,999.68
2022-12-31T01:22:59.974Z,999.71
2022-12-31T01:23:59.865Z,999.69
2022-12-31T01:24:59.889Z,999.75
2022-12-31T01:25:59.873Z,999.76
2022-12-31T01:26:59.852Z,999.74
2022-12-31T01:27:59.840Z,999.76
2022-12-31T01:28:59.969Z,999.74
2022-12-31T01:29:59.793Z,999.74
2022-12-31T01:30:59.912Z,999.72
2022-12-31T01:31:59.771Z,999.72
2022-12-31T01:32:59.795Z,999.71
2022-12-31T01:33:59.769Z,999.72
2022-12-31T01:34:59.864Z,999.67
2022-12-31T01:35:59.740Z,999.71
2022-12-31T01:36:59.764Z,999.71
2022-12-31T01:37:59.683Z,999.73
2022-12-31T01:38:59.747Z,999.69
2022-12-31T01:39:59.674Z,999.63
2022-12-31T01:40:59.710Z,999.68
2022-12-31T01:41:59.661Z,999.68
2022-12-31T01:42:59.644Z,999.71
2022-12-31T01:43:59.642Z,999.72
2022-12-31T01:44:59.635Z,999.71
2022-12-31T01:45:59.628Z,999.71
2022-12-31T01:46:59.627Z,999.69
2022-12-31T01:47:59.583Z,999.67
2022-12-31T01:48:59.585Z,999.65
2022-12-31T01:49:59.539Z,999.66
2022-12-31T01:50:59.556Z,999.64
2022-12-31T01:51:59.490Z,999.68
2022-12-31T01:52:59.550Z,999.66
2022-12-31T01:53:59.500Z,999.64
2022-12-31T01:54:59.489Z,999.63
2022-12-31T01:55:59.482Z,999.66
2022-12-31T01:56:59.481Z,999.60
2022-12-31T01:57:59.418Z,999.61
2022-12-31T01:58:59.491Z,999.60
2022-12-31T01:59:59.391Z,999.59
2022-12-31T02:01:00.409Z,999.62
2022-12-31T02:01:59.429Z,999.63
2022-12-31T02:02:59.489Z,999.64
2022-12-31T02:03:59.334Z,999.62
2022-12-31T02:04:59.389Z,999.66
2022-12-31T02:05:59.336Z,999.62
2022-12-31T02:06:59.324Z,999.66
2022-12-31T02:07:59.319Z,999.70
2022-12-31T02:08:59.322Z,999.64
2022-12-31T02:09:59.259Z,999.69
2022-12-31T02:10:59.340Z,999.69
2022-12-31T02:11:59.234Z,999.67
2022-12-31T02:12:59.254Z,999.67
2022-12-31T02:13:59.232Z,999.63
2022-12-31T02:14:59.216Z,999.62
2022-12-31T02:15:59.222Z,999.63
2022-12-31T02:16:59.239Z,999.63
2022-12-31T02:17:59.148Z,999.66
2022-12-31T02:18:59.236Z,999.68
2022-12-31T02:19:59.152Z,999.67
2022-12-31T02:20:59.174Z,999.62
2022-12-31T02:21:59.106Z,999.63
2022-12-31T02:22:59.196Z,999.57
2022-12-31T02:23:59.069Z,999.55
2022-12-31T02:24:59.093Z,999.54
2022-12-31T02:25:59.082Z,999.53
2022-12-31T02:26:59.058Z,999.56
2022-12-31T02:27:59.046Z,999.54
2022-12-31T02:28:59.103Z,999.51
2022-12-31T02:29:58.989Z,999.49
2022-12-31T02:30:59.099Z,999.47
2022-12-31T02:31:58.976Z,999.50
2022-12-31T02:32:58.985Z,999.49
2022-12-31T02:33:58.969Z,999.47
2022-12-31T02:34:58.980Z,999.50
2022-12-31T02:35:58.950Z,999.43
2022-12-31T02:36:58.953Z,999.36
2022-12-31T02:37:58.905Z,999.39
2022-12-31T02:38:58.931Z,999.42
2022-12-31T02:39:58.862Z,999.42
2022-12-31T02:40:58.927Z,999.30
2022-12-31T02:41:58.860Z,999.31
2022-12-31T02:42:58.861Z,999.33
2022-12-31T02:43:58.831Z,999.36
2022-12-31T02:44:58.843Z,999.38
2022-12-31T02:45:58.789Z,999.47
2022-12-31T02:46:58.940Z,999.38
2022-12-31T02:47:58.754Z,999.43
2022-12-31T02:48:58.778Z,999.45
2022-12-31T02:49:58.755Z,999.35
2022-12-31T02:50:58.767Z,999.48
2022-12-31T02:51:58.700Z,999.43
2022-12-31T02:52:58.747Z,999.42
2022-12-31T02:53:58.696Z,999.45
2022-12-31T02:54:58.701Z,999.43
2022-12-31T02:55:58.676Z,999.35
2022-12-31T02:56:58.698Z,999.30
2022-12-31T02:57:58.620Z,999.28
2022-12-31T02:58:58.786Z,999.26
2022-12-31T02:59:58.592Z,999.23
2022-12-31T03:00:58.664Z,999.25
2022-12-31T03:01:58.757Z,999.20
2022-12-31T03:02:58.598Z,999.20
2022-12-31T03:03:58.572Z,999.20
2022-12-31T03:04:58.612Z,999.19
2022-12-31T03:05:58.516Z,999.25
2022-12-31T03:06:58.532Z,999.31
2022-12-31T03:07:58.517Z,999.30
2022-12-31T03:08:58.536Z,999.36
2022-12-31T03:09:58.463Z,999.28
2022-12-31T03:10:58.537Z,999.34
2022-12-31T03:11:58.437Z,999.32
2022-12-31T03:12:58.471Z,999.30
2022-12-31T03:13:58.432Z,999.31
2022-12-31T03:14:58.421Z,999.25
2022-12-31T03:15:58.428Z,999.26
2022-12-31T03:16:58.443Z,999.25
2022-12-31T03:17:58.375Z,999.24
2022-12-31T03:18:58.403Z,999.26
2022-12-31T03:19:58.342Z,999.27
2022-12-31T03:20:58.338Z,999.29
2022-12-31T03:21:58.334Z,999.30
2022-12-31T03:22:58.454Z,999.32
2022-12-31T03:23:58.279Z,999.35
2022-12-31T03:24:58.288Z,999.36
2022-12-31T03:25:58.276Z,999.34
2022-12-31T03:26:58.261Z,999.38
2022-12-31T03:27:58.279Z,999.45
2022-12-31T03:28:58.317Z,999.44
2022-12-31T03:29:58.200Z,999.47
2022-12-31T03:30:58.241Z,999.60
2022-12-31T03:31:58.170Z,999.66
2022-12-31T03:32:58.181Z,999.68
2022-12-31T03:33:58.173Z,999.70
2022-12-31T03:34:58.171Z,999.63
2022-12-31T03:35:58.152Z,999.62
2022-12-31T03:36:58.164Z,999.60
2022-12-31T03:37:58.104Z,999.62
2022-12-31T03:38:58.129Z,999.62
2022-12-31T03:39:58.064Z,999.63
2022-12-31T03:40:58.113Z,999.65
2022-12-31T03:41:58.077Z,999.69
2022-12-31T03:42:58.055Z,999.68
2022-12-31T03:43:58.039Z,999.59
2022-12-31T03:44:58.052Z,999.65
2022-12-31T03:45:57.999Z,999.67
2022-12-31T03:46:58.141Z,999.70
2022-12-31T03:47:57.977Z,999.65
2022-12-31T03:48:57.966Z,999.68
2022-12-31T03:49:57.957Z,999.64
2022-12-31T03:50:57.947Z,999.66
2022-12-31T03:51:57.932Z,999.64
2022-12-31T03:52:58.064Z,999.67
2022-12-31T03:53:57.868Z,999.74
2022-12-31T03:54:57.887Z,999.74
2022-12-31T03:55:57.882Z,999.80
2022-12-31T03:57:00.253Z,999.85
2022-12-31T03:57:57.828Z,999.88
2022-12-31T03:58:57.895Z,999.92
2022-12-31T03:59:57.800Z,999.88
2022-12-31T04:00:57.954Z,999.89
2022-12-31T04:01:57.875Z,999.86
2022-12-31T04:02:57.861Z,999.88
2022-12-31T04:03:57.773Z,999.86
2022-12-31T04:04:57.821Z,999.93
2022-12-31T04:05:57.720Z,1000.00
2022-12-31T04:06:57.775Z,1000.00
2022-12-31T04:07:57.691Z,1000.06
2022-12-31T04:08:57.724Z,1000.08
2022-12-31T04:09:57.715Z,1000.01
2022-12-31T04:10:57.811Z,999.94
2022-12-31T04:11:57.647Z,999.90
2022-12-31T04:12:57.653Z,999.89
2022-12-31T04:13:57.636Z,999.84
2022-12-31T04:14:57.636Z,999.83
2022-12-31T04:15:57.605Z,999.70
2022-12-31T04:16:57.759Z,999.53
2022-12-31T04:17:57.569Z,999.26
2022-12-31T04:18:57.604Z,999.17
2022-12-31T04:19:57.564Z,999.12
2022-12-31T04:20:57.552Z,998.96
2022-12-31T04:21:57.535Z,998.89
2022-12-31T04:22:57.545Z,998.90
2022-12-31T04:23:57.499Z,998.97
2022-12-31T04:24:57.528Z,999.08
2022-12-31T04:25:57.467Z,999.17
2022-12-31T04:27:02.083Z,999.26
2022-12-31T04:27:58.492Z,999.24
2022-12-31T04:28:57.486Z,999.09
2022-12-31T04:29:57.411Z,999.06
2022-12-31T04:30:57.448Z,999.07
2022-12-31T04:31:57.447Z,999.03
2022-12-31T04:32:57.386Z,999.01
2022-12-31T04:33:57.415Z,998.98
2022-12-31T04:34:57.356Z,998.97
2022-12-31T04:35:57.364Z,999.08
2022-12-31T04:36:57.364Z,999.11
2022-12-31T04:37:57.293Z,999.17
2022-12-31T04:38:57.339Z,999.18
2022-12-31T04:40:03.524Z,999.26
2022-12-31T04:40:58.291Z,999.36
2022-12-31T04:41:57.277Z,999.39
2022-12-31T04:42:57.255Z,999.39
2022-12-31T04:43:57.239Z,999.42
2022-12-31T04:44:57.233Z,999.45
2022-12-31T04:45:57.338Z,999.51
2022-12-31T04:46:57.204Z,999.52
2022-12-31T04:47:57.225Z,999.54
2022-12-31T04:48:57.200Z,999.58
2022-12-31T04:49:57.185Z,999.59
2022-12-31T04:50:57.167Z,999.56
2022-12-31T04:51:57.268Z,999.59
2022-12-31T04:52:57.115Z,999.55
2022-12-31T04:53:57.148Z,999.62
2022-12-31T04:54:57.063Z,999.64
2022-12-31T04:55:57.137Z,999.68
2022-12-31T04:56:57.075Z,999.73
2022-12-31T04:57:57.181Z,999.71
2022-12-31T04:58:57.025Z,999.69
2022-12-31T04:59:57.083Z,999.67
2022-12-31T05:00:57.090Z,999.71
2022-12-31T05:01:57.211Z,999.71
2022-12-31T05:02:57.032Z,999.71
2022-12-31T05:03:57.095Z,999.65
2022-12-31T05:04:56.956Z,999.60
2022-12-31T05:05:56.985Z,999.65
2022-12-31T05:06:56.970Z,999.67
2022-12-31T05:07:56.958Z,999.69
2022-12-31T05:08:56.909Z,999.68
2022-12-31T05:09:56.943Z,999.71
2022-12-31T05:10:56.891Z,999.75
2022-12-31T05:11:56.887Z,999.73
2022-12-31T05:12:56.832Z,999.78
2022-12-31T05:13:56.874Z,999.81
2022-12-31T05:14:56.837Z,999.90
2022-12-31T05:15:56.929Z,999.93
2022-12-31T05:16:56.829Z,999.95
2022-12-31T05:17:56.826Z,999.92
2022-12-31T05:18:56.756Z,999.94
2022-12-31T05:19:56.799Z,999.96
2022-12-31T05:20:56.763Z,999.94
2022-12-31T05:21:56.765Z,999.88
2022-12-31T05:22:56.732Z,999.88
2022-12-31T05:23:56.713Z,999.96
2022-12-31T05:24:56.676Z,999.95
2022-12-31T05:25:56.714Z,999.97
2022-12-31T05:26:56.655Z,999.98
2022-12-31T05:27:56.792Z,1000.01
2022-12-31T05:28:56.645Z,1000.01
2022-12-31T05:29:56.638Z,999.91
2022-12-31T05:30:56.664Z,999.91
2022-12-31T05:31:56.632Z,999.92
2022-12-31T05:32:56.599Z,999.88
2022-12-31T05:33:56.648Z,999.90
2022-12-31T05:34:56.575Z,999.88
2022-12-31T05:35:56.559Z,999.90
2022-12-31T05:36:56.518Z,999.94
2022-12-31T05:37:56.558Z,999.97
2022-12-31T05:38:56.495Z,999.96
2022-12-31T05:39:56.654Z,999.81
2022-12-31T05:40:56.487Z,999.81
2022-12-31T05:41:56.471Z,999.75
2022-12-31T05:42:57.425Z,999.73
2022-12-31T05:43:56.458Z,999.76
2022-12-31T05:44:56.409Z,999.77
2022-12-31T05:45:56.540Z,999.82
2022-12-31T05:46:56.383Z,999.81
2022-12-31T05:47:56.427Z,999.82
2022-12-31T05:48:56.380Z,999.85
2022-12-31T05:49:56.364Z,999.86
2022-12-31T05:50:56.357Z,999.85
2022-12-31T05:51:56.382Z,999.91
2022-12-31T05:52:56.306Z,999.92
2022-12-31T05:53:56.342Z,999.98
2022-12-31T05:54:56.272Z,999.96
2022-12-31T05:55:56.318Z,1000.01
2022-12-31T05:56:56.286Z,1000.00
2022-12-31T05:57:56.294Z,1000.06
2022-12-31T05:58:56.304Z,1000.05
2022-12-31T05:59:56.280Z,1000.05
2022-12-31T06:00:56.263Z,1000.14
2022-12-31T06:01:56.239Z,1000.15
2022-12-31T06:02:56.315Z,1000.21
2022-12-31T06:03:56.401Z,1000.18
2022-12-31T06:04:56.138Z,1000.20
2022-12-31T06:05:56.199Z,1000.17
2022-12-31T06:06:56.117Z,1000.17
2022-12-31T06:07:56.159Z,1000.13
2022-12-31T06:08:56.137Z,1000.10
2022-12-31T06:09:56.141Z,1000.09
2022-12-31T06:10:56.091Z,1000.12
2022-12-31T06:11:56.079Z,1000.14
2022-12-31T06:12:56.053Z,1000.07
2022-12-31T06:13:56.077Z,1000.07
2022-12-31T06:14:56.032Z,1000.06
2022-12-31T06:15:56.227Z,1000.10
2022-12-31T06:16:56.029Z,1000.13
2022-12-31T06:17:56.004Z,1000.15
2022-12-31T06:18:55.963Z,1000.22
2022-12-31T06:19:55.998Z,1000.20
2022-12-31T06:20:55.960Z,1000.22
2022-12-31T06:21:55.984Z,1000.25
2022-12-31T06:22:55.932Z,1000.26
2022-12-31T06:23:55.914Z,1000.25
2022-12-31T06:24:55.874Z,1000.26
2022-12-31T06:25:55.920Z,1000.27
2022-12-31T06:26:55.855Z,1000.16
2022-12-31T06:27:56.021Z,1000.16
2022-12-31T06:28:55.851Z,1000.13
2022-12-31T06:29:55.835Z,1000.16
2022-12-31T06:30:55.850Z,1000.18
2022-12-31T06:31:55.816Z,1000.15
2022-12-31T06:32:55.775Z,1000.17
2022-12-31T06:33:55.848Z,1000.13
2022-12-31T06:34:55.773Z,1000.10
2022-12-31T06:35:55.772Z,1000.09
2022-12-31T06:36:55.726Z,1000.11
2022-12-31T06:37:55.754Z,1000.20
2022-12-31T06:38:55.696Z,1000.13
2022-12-31T06:39:55.784Z,1000.04
2022-12-31T06:40:55.694Z,1000.02
2022-12-31T06:41:55.679Z,1000.04
2022-12-31T06:42:59.935Z,999.99
2022-12-31T06:43:55.654Z,999.93
2022-12-31T06:44:55.669Z,999.97
2022-12-31T06:45:55.775Z,999.96
2022-12-31T06:46:55.637Z,999.99
2022-12-31T06:47:55.633Z,1000.07
2022-12-31T06:48:55.593Z,1000.09
2022-12-31T06:49:55.580Z,1000.06
2022-12-31T06:50:55.558Z,1000.08
2022-12-31T06:51:55.591Z,1000.11
2022-12-31T06:52:55.517Z,1000.14
2022-12-31T06:53:55.555Z,1000.24
2022-12-31T06:54:55.483Z,1000.18
2022-12-31T06:55:55.528Z,1000.17
2022-12-31T06:56:55.486Z,1000.21
2022-12-31T06:57:55.513Z,1000.22
2022-12-31T06:58:55.452Z,1000.12
2022-12-31T06:59:55.451Z,1000.14
2022-12-31T07:00:55.412Z,1000.18
2022-12-31T07:01:55.585Z,1000.20
2022-12-31T07:02:55.413Z,1000.05
2022-12-31T07:03:55.449Z,1000.07
2022-12-31T07:04:55.376Z,1000.10
2022-12-31T07:05:55.369Z,1000.14
2022-12-31T07:06:55.325Z,1000.16
2022-12-31T07:07:55.374Z,1000.34
2022-12-31T07:08:55.324Z,1000.47
2022-12-31T07:09:55.355Z,1000.23
2022-12-31T07:10:55.299Z,1000.19
2022-12-31T07:11:55.286Z,1000.37
2022-12-31T07:12:55.250Z,1000.36
2022-12-31T07:13:55.304Z,1000.42
2022-12-31T07:14:55.263Z,1000.49
2022-12-31T07:15:55.322Z,1000.33
2022-12-31T07:16:55.226Z,1000.39
2022-12-31T07:17:55.223Z,1000.29
2022-12-31T07:18:55.198Z,1000.15
2022-12-31T07:19:57.648Z,1000.16
2022-12-31T07:20:55.149Z,1000.28
2022-12-31T07:21:55.219Z,1000.25
2022-12-31T07:22:55.149Z,1000.19
2022-12-31T07:23:55.141Z,1000.22
2022-12-31T07:24:55.103Z,1000.48
2022-12-31T07:25:55.144Z,1000.24
2022-12-31T07:26:57.042Z,1000.06
2022-12-31T07:27:55.151Z,1000.17
2022-12-31T07:28:55.071Z,1000.39
2022-12-31T07:29:55.065Z,1000.42
2022-12-31T07:30:55.126Z,1000.26
2022-12-31T07:31:55.055Z,1000.42
2022-12-31T07:32:54.999Z,1000.58
2022-12-31T07:33:55.113Z,1000.34
2022-12-31T07:34:54.983Z,1000.04
2022-12-31T07:35:55.011Z,1000.10
2022-12-31T07:36:54.970Z,1000.22
2022-12-31T07:37:54.966Z,1000.16
2022-12-31T07:38:54.918Z,1000.18
2022-12-31T07:39:55.056Z,1000.11
2022-12-31T07:40:57.571Z,1000.25
2022-12-31T07:41:54.910Z,1000.40
2022-12-31T07:42:54.884Z,1000.51
2022-12-31T07:43:54.894Z,1000.49
2022-12-31T07:44:54.840Z,1000.65
2022-12-31T07:45:54.915Z,1000.80
2022-12-31T07:46:54.828Z,1000.52
2022-12-31T07:48:00.527Z,1000.38
2022-12-31T07:48:55.813Z,1000.33
2022-12-31T07:49:54.813Z,1000.57
2022-12-31T07:50:54.794Z,1000.44
2022-12-31T07:51:54.879Z,1000.39
2022-12-31T07:52:54.730Z,1000.36
2022-12-31T07:53:54.777Z,1000.59
2022-12-31T07:54:54.713Z,1000.59
2022-12-31T07:55:54.748Z,1000.58
2022-12-31T07:56:54.712Z,1000.58
2022-12-31T07:57:54.814Z,1000.68
2022-12-31T07:58:54.669Z,1000.62
2022-12-31T07:59:54.667Z,1000.63
2022-12-31T08:00:54.689Z,1000.70
2022-12-31T08:01:54.815Z,1000.72
2022-12-31T08:02:54.635Z,1000.68
2022-12-31T08:03:54.650Z,1000.72
2022-12-31T08:04:54.599Z,1000.63
2022-12-31T08:05:54.635Z,1000.58
2022-12-31T08:06:54.600Z,1000.56
2022-12-31T08:07:54.573Z,1000.57
2022-12-31T08:08:54.575Z,1000.61
2022-12-31T08:09:54.617Z,1000.53
2022-12-31T08:10:54.520Z,1000.58
2022-12-31T08:11:54.506Z,1000.52
2022-12-31T08:12:54.484Z,1000.49
2022-12-31T08:13:54.504Z,1000.50
2022-12-31T08:14:54.445Z,1000.48
2022-12-31T08:15:54.631Z,1000.47
2022-12-31T08:16:54.446Z,1000.47
2022-12-31T08:17:54.436Z,1000.43
2022-12-31T08:18:54.435Z,1000.41
2022-12-31T08:19:54.399Z,1000.39
2022-12-31T08:20:54.371Z,1000.37
2022-12-31T08:21:54.454Z,1000.40
2022-12-31T08:22:54.353Z,1000.40
2022-12-31T08:23:54.374Z,1000.40
2022-12-31T08:24:54.334Z,1000.40
2022-12-31T08:25:54.357Z,1000.39
2022-12-31T08:26:54.300Z,1000.38
2022-12-31T08:27:54.441Z,1000.37
2022-12-31T08:28:54.285Z,1000.34
2022-12-31T08:29:54.278Z,1000.35
2022-12-31T08:30:54.248Z,1000.34
2022-12-31T08:31:54.305Z,1000.33
2022-12-31T08:32:54.217Z,1000.35
2022-12-31T08:33:54.352Z,1000.38
2022-12-31T08:34:54.163Z,1000.37
2022-12-31T08:35:54.212Z,1000.41
2022-12-31T08:36:54.182Z,1000.42
2022-12-31T08:37:54.157Z,1000.43
2022-12-31T08:38:54.144Z,1000.52
2022-12-31T08:39:54.266Z,1000.47
2022-12-31T08:40:54.124Z,1000.39
2022-12-31T08:41:54.157Z,1000.38
2022-12-31T08:42:54.115Z,1000.35
2022-12-31T08:43:54.080Z,1000.37
2022-12-31T08:44:54.070Z,1000.37
2022-12-31T08:45:54.184Z,1000.33
2022-12-31T08:46:54.005Z,1000.36
2022-12-31T08:47:59.661Z,1000.37
2022-12-31T08:48:55.036Z,1000.37
2022-12-31T08:49:54.003Z,1000.36
2022-12-31T08:50:53.995Z,1000.33
2022-12-31T08:51:54.079Z,1000.37
2022-12-31T08:52:53.934Z,1000.43
2022-12-31T08:53:53.975Z,1000.43
2022-12-31T08:54:53.922Z,1000.36
2022-12-31T08:55:53.961Z,1000.45
2022-12-31T08:56:53.897Z,1000.47
2022-12-31T08:57:53.928Z,1000.51
2022-12-31T08:58:53.918Z,1000.48
2022-12-31T08:59:53.852Z,1000.48
2022-12-31T09:00:53.890Z,1000.42
2022-12-31T09:01:53.977Z,1000.43
2022-12-31T09:02:53.824Z,1000.30
2022-12-31T09:03:53.947Z,1000.37
2022-12-31T09:04:53.840Z,1000.45
2022-12-31T09:05:53.771Z,1000.61
2022-12-31T09:06:53.800Z,1000.78
2022-12-31T09:07:53.733Z,1000.81
2022-12-31T09:08:53.743Z,1000.84
2022-12-31T09:09:53.861Z,1000.71
2022-12-31T09:10:53.717Z,1000.69
2022-12-31T09:11:53.741Z,1000.73
2022-12-31T09:12:53.721Z,1000.72
2022-12-31T09:13:53.655Z,1000.77
2022-12-31T09:14:53.666Z,1000.80
2022-12-31T09:15:53.683Z,1000.85
2022-12-31T09:16:53.699Z,1000.84
2022-12-31T09:17:53.588Z,1000.88
2022-12-31T09:18:53.653Z,1000.96
2022-12-31T09:19:53.572Z,1000.86
2022-12-31T09:20:53.609Z,1000.83
2022-12-31T09:21:53.686Z,1000.81
2022-12-31T09:22:54.391Z,1000.86
2022-12-31T09:23:53.557Z,1000.92
2022-12-31T09:24:53.565Z,1000.90
2022-12-31T09:25:53.513Z,1000.88
2022-12-31T09:26:53.533Z,1000.87
2022-12-31T09:27:53.505Z,1000.92
2022-12-31T09:28:53.471Z,1000.99
2022-12-31T09:29:53.458Z,1001.04
2022-12-31T09:30:53.498Z,1001.00
2022-12-31T09:31:53.446Z,1001.01
2022-12-31T09:33:00.320Z,1000.98
2022-12-31T09:33:54.460Z,1001.04
2022-12-31T09:34:53.402Z,1001.07
2022-12-31T09:35:53.392Z,1001.04
2022-12-31T09:36:53.399Z,1001.04
2022-12-31T09:37:53.329Z,1001.07
2022-12-31T09:38:53.369Z,1001.10
2022-12-31T09:39:53.353Z,1001.04
2022-12-31T09:40:53.348Z,1001.05
2022-12-31T09:41:53.301Z,1001.02
2022-12-31T09:42:53.295Z,1000.99
2022-12-31T09:43:58.976Z,1001.03
2022-12-31T09:44:54.333Z,1001.00
2022-12-31T09:45:53.247Z,1000.89
2022-12-31T09:46:53.235Z,1000.89
2022-12-31T09:47:53.223Z,1000.83
2022-12-31T09:48:53.241Z,1000.81
2022-12-31T09:49:53.168Z,1000.86
2022-12-31T09:50:53.333Z,1000.84
2022-12-31T09:51:53.146Z,1000.78
2022-12-31T09:52:53.165Z,1000.80
2022-12-31T09:53:53.155Z,1000.69
2022-12-31T09:54:53.138Z,1000.66
2022-12-31T09:55:53.125Z,1000.70
2022-12-31T09:56:58.883Z,1000.56
2022-12-31T09:57:54.070Z,1000.66
2022-12-31T09:58:53.097Z,1000.72
2022-12-31T09:59:53.041Z,1000.77
2022-12-31T10:00:53.062Z,1000.66
2022-12-31T10:01:53.152Z,1000.75
2022-12-31T10:02:53.229Z,1000.76
2022-12-31T10:03:59.229Z,1000.76
2022-12-31T10:04:54.066Z,1000.79
2022-12-31T10:05:52.957Z,1000.75
2022-12-31T10:06:53.001Z,1000.72
2022-12-31T10:07:53.820Z,1000.77
2022-12-31T10:08:52.981Z,1000.87
2022-12-31T10:09:52.932Z,1000.91
2022-12-31T10:10:52.910Z,1001.12
2022-12-31T10:11:52.900Z,1001.21
2022-12-31T10:12:52.922Z,1001.33
2022-12-31T10:13:52.845Z,1001.38
2022-12-31T10:14:52.990Z,1001.35
2022-12-31T10:15:52.844Z,1001.27
2022-12-31T10:16:52.864Z,1001.04
2022-12-31T10:17:52.815Z,1001.03
2022-12-31T10:18:52.847Z,1001.02
2022-12-31T10:19:52.775Z,1001.19
2022-12-31T10:20:52.815Z,1001.08
2022-12-31T10:21:52.764Z,1001.18
2022-12-31T10:22:52.760Z,1001.15
2022-12-31T10:23:52.735Z,1001.22
2022-12-31T10:24:52.749Z,1001.14
2022-12-31T10:25:52.753Z,1001.17
2022-12-31T10:26:53.569Z,1001.25
2022-12-31T10:27:52.668Z,1001.16
2022-12-31T10:28:52.668Z,1001.29
2022-12-31T10:29:52.658Z,1001.29
2022-12-31T10:30:52.668Z,1001.32
2022-12-31T10:31:52.630Z,1001.43
2022-12-31T10:32:52.682Z,1001.37
2022-12-31T10:33:52.576Z,1001.45
2022-12-31T10:34:52.607Z,1001.41
2022-12-31T10:35:52.578Z,1001.51
2022-12-31T10:36:52.593Z,1001.70
2022-12-31T10:37:52.526Z,1001.52
2022-12-31T10:38:52.606Z,1001.59
2022-12-31T10:39:52.514Z,1001.65
2022-12-31T10:40:52.515Z,1001.77
2022-12-31T10:41:52.492Z,1001.77
2022-12-31T10:42:52.493Z,1001.90
2022-12-31T10:43:52.480Z,1001.81
2022-12-31T10:44:52.597Z,1001.88
2022-12-31T10:45:52.435Z,1002.05
2022-12-31T10:46:52.464Z,1001.92
2022-12-31T10:47:52.387Z,1002.00
2022-12-31T10:48:52.424Z,1002.04
2022-12-31T10:49:52.399Z,1002.01
2022-12-31T10:50:52.523Z,1001.98
2022-12-31T10:51:52.327Z,1001.96
2022-12-31T10:52:52.350Z,1001.94
2022-12-31T10:53:52.341Z,1001.91
2022-12-31T10:54:52.327Z,1002.03
2022-12-31T10:55:52.323Z,1001.96
2022-12-31T10:56:52.366Z,1001.95
2022-12-31T10:57:52.262Z,1001.84
2022-12-31T10:58:52.296Z,1001.77
2022-12-31T10:59:52.247Z,1001.73
2022-12-31T11:00:52.234Z,1001.62
2022-12-31T11:01:52.373Z,1001.58
2022-12-31T11:02:52.393Z,1001.82
2022-12-31T11:03:52.212Z,1001.78
2022-12-31T11:04:52.228Z,1001.66
2022-12-31T11:05:52.152Z,1001.80
2022-12-31T11:06:52.218Z,1001.82
2022-12-31T11:07:52.114Z,1001.74
2022-12-31T11:08:52.246Z,1001.80
2022-12-31T11:09:52.123Z,1001.87
2022-12-31T11:10:52.102Z,1001.72
2022-12-31T11:11:52.090Z,1001.68
2022-12-31T11:12:52.112Z,1001.77
2022-12-31T11:13:52.044Z,1001.89
2022-12-31T11:14:52.207Z,1001.85
2022-12-31T11:15:52.058Z,1001.77
2022-12-31T11:16:52.031Z,1001.53
2022-12-31T11:17:52.015Z,1001.88
2022-12-31T11:18:52.018Z,1001.66
2022-12-31T11:19:51.984Z,1001.67
2022-12-31T11:20:52.113Z,1001.62
2022-12-31T11:21:51.927Z,1001.57
2022-12-31T11:22:51.949Z,1001.63
2022-12-31T11:23:51.935Z,1001.61
2022-12-31T11:24:51.948Z,1001.68
2022-12-31T11:25:51.896Z,1001.67
2022-12-31T11:26:51.990Z,1001.80
2022-12-31T11:27:51.858Z,1001.73
2022-12-31T11:28:51.882Z,1001.74
2022-12-31T11:29:51.848Z,1001.74
2022-12-31T11:30:51.873Z,1001.79
2022-12-31T11:31:51.817Z,1001.81
2022-12-31T11:32:51.963Z,1001.77
2022-12-31T11:33:51.758Z,1001.74
2022-12-31T11:34:51.820Z,1001.79
2022-12-31T11:35:51.755Z,1001.76
2022-12-31T11:36:51.761Z,1001.85
2022-12-31T11:37:51.741Z,1001.84
2022-12-31T11:38:51.807Z,1001.88
2022-12-31T11:39:51.698Z,1001.87
2022-12-31T11:40:51.741Z,1001.91
2022-12-31T11:41:51.693Z,1001.79
2022-12-31T11:42:51.681Z,1001.78
2022-12-31T11:43:51.669Z,1001.74
2022-12-31T11:44:51.715Z,1001.73
2022-12-31T11:45:51.615Z,1001.71
2022-12-31T11:46:51.685Z,1001.75
2022-12-31T11:48:28.612Z,1001.72
2022-12-31T11:48:52.602Z,1001.75
2022-12-31T11:49:51.584Z,1001.93
2022-12-31T11:50:51.602Z,1001.91
2022-12-31T11:51:51.548Z,1001.77
2022-12-31T11:52:51.585Z,1001.78
2022-12-31T11:53:51.514Z,1001.64
2022-12-31T11:54:51.517Z,1001.71
2022-12-31T11:55:51.550Z,1001.73
2022-12-31T11:56:51.545Z,1001.71
2022-12-31T11:57:51.464Z,1001.74
2022-12-31T11:58:51.535Z,1001.68
2022-12-31T11:59:51.432Z,1001.64
2022-12-31T12:00:51.445Z,1001.60
2022-12-31T12:01:51.431Z,1001.62
2022-12-31T12:02:51.520Z,1001.62
2022-12-31T12:03:51.464Z,1001.62
2022-12-31T12:04:51.426Z,1001.66
2022-12-31T12:05:51.404Z,1001.64
2022-12-31T12:06:51.393Z,1001.62
2022-12-31T12:07:51.372Z,1001.54
2022-12-31T12:08:51.473Z,1001.53
2022-12-31T12:09:52.448Z,1001.58
2022-12-31T12:10:51.315Z,1001.53
2022-12-31T12:11:51.325Z,1001.57
2022-12-31T12:12:51.330Z,1001.55
2022-12-31T12:13:51.242Z,1001.45
2022-12-31T12:14:51.451Z,1001.47
2022-12-31T12:15:51.296Z,1001.50